createdAt,value
2023-08-11T00:02:54.547Z,43.54
2023-08-11T00:07:56.803Z,43.54
2023-08-11T00:12:58.712Z,43.31
2023-08-11T00:18:03.575Z,43.25
2023-08-11T00:23:05.776Z,43.13
2023-08-11T00:28:07.771Z,43.21
2023-08-11T00:33:09.793Z,43.47
2023-08-11T00:38:11.902Z,43.25
2023-08-11T00:43:14.022Z,43.17
2023-08-11T00:48:16.573Z,42.87
2023-08-11T00:53:18.691Z,43.19
2023-08-11T00:58:21.565Z,43.09
2023-08-11T01:03:23.568Z,43.10
2023-08-11T01:08:40.128Z,42.90
2023-08-11T01:13:54.012Z,42.98
2023-08-11T01:18:56.670Z,43.09
2023-08-11T01:23:59.468Z,43.13
2023-08-11T01:29:01.571Z,43.12
2023-08-11T01:34:04.634Z,43.37
2023-08-11T01:39:06.593Z,43.05
2023-08-11T01:44:09.607Z,42.89
2023-08-11T01:49:14.146Z,43.20
2023-08-11T01:54:16.390Z,42.98
2023-08-11T01:59:19.069Z,42.73
2023-08-11T02:04:21.080Z,42.79
2023-08-11T02:09:23.161Z,42.76
2023-08-11T02:14:25.117Z,42.82
2023-08-11T02:19:27.206Z,42.75
2023-08-11T02:24:29.415Z,42.83
2023-08-11T02:29:31.584Z,42.61
2023-08-11T02:34:33.826Z,42.76
2023-08-11T02:39:38.345Z,42.55
2023-08-11T02:44:42.430Z,42.45
2023-08-11T02:49:44.375Z,42.30
2023-08-11T02:54:46.411Z,42.55
2023-08-11T02:59:50.697Z,42.46
2023-08-11T03:04:52.720Z,42.20
2023-08-11T03:09:54.936Z,42.26
2023-08-11T03:14:57.210Z,42.15
2023-08-11T03:20:00.046Z,42.09
2023-08-11T03:25:02.141Z,41.92
2023-08-11T03:30:04.656Z,41.90
2023-08-11T03:35:07.724Z,42.03
2023-08-11T03:40:14.522Z,41.78
2023-08-11T03:45:16.975Z,42.19
2023-08-11T03:50:19.180Z,41.82
2023-08-11T03:55:21.292Z,42.07
2023-08-11T04:00:23.238Z,41.92
2023-08-11T04:05:25.754Z,41.83
2023-08-11T04:10:27.693Z,41.89
2023-08-11T04:15:29.740Z,41.83
2023-08-11T04:20:32.016Z,41.84
2023-08-11T04:25:34.148Z,41.77
2023-08-11T04:30:36.410Z,41.66
2023-08-11T04:35:39.573Z,41.70
2023-08-11T04:40:41.520Z,41.73
2023-08-11T04:45:43.506Z,41.63
2023-08-11T04:50:52.386Z,41.87
2023-08-11T04:55:54.315Z,41.46
2023-08-11T05:00:56.358Z,41.65
2023-08-11T05:05:58.370Z,41.54
2023-08-11T05:11:00.541Z,41.63
2023-08-11T05:16:02.677Z,41.49
2023-08-11T05:21:07.169Z,41.39
2023-08-11T05:26:09.098Z,41.51
2023-08-11T05:31:11.065Z,41.30
2023-08-11T05:36:13.205Z,41.35
2023-08-11T05:41:15.195Z,41.56
2023-08-11T05:46:17.173Z,41.74
2023-08-11T05:51:19.268Z,41.37
2023-08-11T05:56:21.201Z,41.41
2023-08-11T06:01:23.182Z,41.56
2023-08-11T06:06:26.586Z,41.22
2023-08-11T06:11:28.617Z,41.29
2023-08-11T06:16:30.834Z,41.45
2023-08-11T06:21:32.825Z,41.58
2023-08-11T06:26:34.854Z,41.27
2023-08-11T06:31:37.032Z,42.41
2023-08-11T06:36:39.324Z,43.01
2023-08-11T06:41:41.354Z,43.57
2023-08-11T06:46:43.918Z,42.82
2023-08-11T06:51:45.861Z,42.84
2023-08-11T06:56:47.791Z,43.08
2023-08-11T07:01:49.734Z,43.15
2023-08-11T07:06:51.782Z,42.92
2023-08-11T07:11:53.630Z,43.64
2023-08-11T07:16:55.596Z,43.84
2023-08-11T07:21:57.650Z,43.33
2023-08-11T07:26:59.660Z,42.81
2023-08-11T07:32:01.710Z,42.60
2023-08-11T07:37:04.265Z,42.19
2023-08-11T07:42:06.589Z,41.91
2023-08-11T07:47:08.794Z,41.73
2023-08-11T07:52:11.006Z,41.57
2023-08-11T07:57:13.160Z,41.92
2023-08-11T08:02:15.176Z,41.93
2023-08-11T08:07:17.276Z,42.96
2023-08-11T08:12:19.228Z,43.44
2023-08-11T08:17:21.498Z,44.13
2023-08-11T08:22:23.456Z,43.92
2023-08-11T08:27:25.807Z,43.87
2023-08-11T08:32:29.015Z,43.25
2023-08-11T08:37:33.028Z,43.85
2023-08-11T08:42:35.866Z,43.96
2023-08-11T08:47:39.538Z,43.01
2023-08-11T08:52:41.916Z,43.31
2023-08-11T08:57:44.496Z,43.36
2023-08-11T09:02:47.272Z,43.64
2023-08-11T09:07:49.313Z,43.58
2023-08-11T09:12:51.818Z,43.49
2023-08-11T09:17:53.970Z,43.55
2023-08-11T09:22:56.036Z,43.19
2023-08-11T09:27:59.384Z,43.61
2023-08-11T09:33:02.967Z,44.08
2023-08-11T09:38:05.681Z,43.82
2023-08-11T09:43:07.635Z,43.43
2023-08-11T09:48:10.008Z,43.96
2023-08-11T09:53:12.847Z,43.55
2023-08-11T09:58:15.720Z,43.48
2023-08-11T10:03:27.540Z,43.09
2023-08-11T10:08:31.001Z,43.21
2023-08-11T10:13:34.314Z,43.20
2023-08-11T10:18:37.523Z,43.27
2023-08-11T10:23:39.501Z,43.81
2023-08-11T10:28:42.238Z,45.31
2023-08-11T10:33:51.389Z,45.86
2023-08-11T10:39:06.363Z,46.45
2023-08-11T10:44:08.337Z,46.22
2023-08-11T10:49:10.592Z,46.49
2023-08-11T10:54:23.734Z,46.45
2023-08-11T10:59:28.431Z,46.39
2023-08-11T11:04:33.050Z,45.32
2023-08-11T11:09:35.242Z,45.03
2023-08-11T11:14:37.803Z,44.28
2023-08-11T11:19:40.017Z,44.10
2023-08-11T11:24:43.242Z,43.83
2023-08-11T11:29:45.428Z,43.46
2023-08-11T11:34:47.678Z,43.87
2023-08-11T11:39:49.797Z,43.63
2023-08-11T11:44:51.926Z,43.18
2023-08-11T11:50:00.645Z,45.17
2023-08-11T11:55:02.699Z,46.80
2023-08-11T12:00:09.062Z,46.56
2023-08-11T12:05:11.255Z,46.54
2023-08-11T12:10:13.136Z,46.14
2023-08-11T12:15:19.331Z,45.04
2023-08-11T12:20:23.532Z,44.81
2023-08-11T12:25:25.760Z,44.69
2023-08-11T12:30:27.730Z,45.91
2023-08-11T12:35:30.028Z,45.76
2023-08-11T12:40:32.015Z,45.28
2023-08-11T12:45:34.026Z,45.21
2023-08-11T12:50:37.593Z,44.82
2023-08-11T12:55:39.726Z,44.90
2023-08-11T13:00:41.744Z,44.45
2023-08-11T13:05:43.796Z,44.41
2023-08-11T13:10:45.874Z,44.48
2023-08-11T13:15:49.079Z,45.12
2023-08-11T13:20:52.385Z,45.98
2023-08-11T13:25:54.520Z,45.56
2023-08-11T13:30:56.706Z,45.39
2023-08-11T13:35:58.762Z,45.15
2023-08-11T13:41:01.700Z,44.77
2023-08-11T13:46:04.340Z,46.78
2023-08-11T13:51:06.696Z,47.95
2023-08-11T13:56:10.366Z,48.17
2023-08-11T14:01:12.276Z,48.32
2023-08-11T14:06:14.247Z,48.33
2023-08-11T14:11:17.091Z,47.99
2023-08-11T14:16:19.690Z,48.13
2023-08-11T14:21:21.823Z,48.19
2023-08-11T14:26:23.967Z,47.69
2023-08-11T14:31:25.887Z,47.53
2023-08-11T14:36:28.020Z,47.27
2023-08-11T14:41:30.008Z,47.80
2023-08-11T14:46:32.103Z,48.11
2023-08-11T14:51:34.025Z,46.96
2023-08-11T14:56:35.932Z,46.25
2023-08-11T15:01:37.796Z,45.96
2023-08-11T15:06:39.814Z,45.83
2023-08-11T15:11:42.041Z,45.99
2023-08-11T15:16:44.345Z,45.67
2023-08-11T15:21:46.615Z,45.64
2023-08-11T15:26:48.780Z,45.66
2023-08-11T15:31:53.544Z,45.30
2023-08-11T15:36:56.475Z,45.58
2023-08-11T15:41:58.512Z,45.24
2023-08-11T15:47:00.488Z,45.28
2023-08-11T15:52:02.366Z,45.46
2023-08-11T15:57:04.793Z,45.34
2023-08-11T16:02:10.591Z,45.46
2023-08-11T16:07:13.467Z,45.31
2023-08-11T16:12:15.545Z,45.28
2023-08-11T16:17:17.583Z,44.83
2023-08-11T16:22:19.598Z,44.90
2023-08-11T16:27:22.431Z,45.03
2023-08-11T16:32:24.440Z,45.30
2023-08-11T16:37:26.550Z,45.17
2023-08-11T16:42:28.617Z,44.98
2023-08-11T16:47:30.733Z,45.14
2023-08-11T16:52:32.816Z,44.96
2023-08-11T16:57:35.529Z,44.94
2023-08-11T17:02:37.547Z,44.88
2023-08-11T17:07:39.950Z,44.88
2023-08-11T17:12:42.256Z,44.81
2023-08-11T17:17:44.476Z,44.74
2023-08-11T17:22:46.628Z,44.77
2023-08-11T17:27:48.797Z,44.73
2023-08-11T17:32:50.771Z,44.62
2023-08-11T17:37:52.965Z,44.77
2023-08-11T17:42:55.003Z,46.85
2023-08-11T17:47:57.172Z,46.29
2023-08-11T17:52:59.446Z,46.05
2023-08-11T17:58:01.660Z,48.01
2023-08-11T18:03:03.839Z,49.09
2023-08-11T18:08:06.646Z,49.32
2023-08-11T18:13:08.767Z,50.27
2023-08-11T18:18:10.788Z,51.19
2023-08-11T18:23:15.902Z,53.08
2023-08-11T18:28:18.003Z,52.55
2023-08-11T18:33:19.929Z,50.71
2023-08-11T18:38:22.320Z,50.17
2023-08-11T18:43:24.422Z,50.05
2023-08-11T18:48:26.499Z,49.91
2023-08-11T18:53:29.047Z,49.52
2023-08-11T18:58:31.174Z,49.63
2023-08-11T19:03:34.023Z,49.52
2023-08-11T19:08:36.308Z,49.23
2023-08-11T19:13:38.361Z,54.11
2023-08-11T19:18:41.294Z,54.07
2023-08-11T19:23:43.497Z,53.86
2023-08-11T19:28:46.554Z,53.58
2023-08-11T19:33:48.543Z,53.51
2023-08-11T19:38:50.997Z,53.82
2023-08-11T19:43:53.034Z,54.48
2023-08-11T19:48:55.011Z,54.04
2023-08-11T19:53:57.102Z,52.93
2023-08-11T19:58:59.112Z,52.09
2023-08-11T20:04:01.182Z,51.80
2023-08-11T20:09:03.489Z,52.29
2023-08-11T20:14:05.672Z,52.36
2023-08-11T20:19:07.599Z,52.45
2023-08-11T20:24:09.937Z,52.75
2023-08-11T20:29:12.807Z,52.65
2023-08-11T20:34:14.977Z,53.72
2023-08-11T20:39:17.383Z,53.19
2023-08-11T20:44:19.213Z,53.44
2023-08-11T20:49:21.314Z,53.22
2023-08-11T20:54:24.312Z,52.84
2023-08-11T20:59:26.463Z,52.37
2023-08-11T21:04:28.940Z,52.65
2023-08-11T21:09:31.054Z,55.19
2023-08-11T21:14:33.122Z,57.13
2023-08-11T21:19:35.124Z,57.23
2023-08-11T21:24:36.975Z,55.99
2023-08-11T21:29:38.849Z,55.32
2023-08-11T21:34:40.773Z,54.94
2023-08-11T21:39:42.777Z,54.43
2023-08-11T21:44:44.812Z,54.30
2023-08-11T21:49:46.953Z,53.68
2023-08-11T21:54:48.980Z,53.37
2023-08-11T21:59:51.203Z,53.13
2023-08-11T22:04:53.193Z,52.40
2023-08-11T22:09:55.327Z,52.37
2023-08-11T22:14:57.248Z,52.13
2023-08-11T22:19:59.260Z,51.81
2023-08-11T22:25:03.498Z,51.65
2023-08-11T22:30:07.035Z,51.35
2023-08-11T22:35:09.389Z,51.17
2023-08-11T22:40:11.574Z,51.10
2023-08-11T22:45:13.548Z,50.96
2023-08-11T22:50:15.736Z,50.86
2023-08-11T22:55:17.878Z,50.74
2023-08-11T23:00:21.133Z,50.44
2023-08-11T23:05:23.283Z,50.42
2023-08-11T23:10:25.255Z,50.12
2023-08-11T23:15:28.311Z,50.23
2023-08-11T23:20:30.507Z,50.12
2023-08-11T23:25:32.304Z,49.98
2023-08-11T23:30:34.332Z,49.84
2023-08-11T23:35:40.040Z,50.05
2023-08-11T23:40:42.166Z,49.97
2023-08-11T23:45:44.220Z,49.72
2023-08-11T23:50:46.233Z,49.37
2023-08-11T23:55:48.262Z,49.32
